createdAt,value
2023-04-15T00:00:17.740Z,4.50
2023-04-15T00:01:20.850Z,4.57
2023-04-15T00:02:22.992Z,4.47
2023-04-15T00:03:25.344Z,4.45
2023-04-15T00:04:28.357Z,4.20
2023-04-15T00:05:31.100Z,4.57
2023-04-15T00:06:33.295Z,4.20
2023-04-15T00:07:35.982Z,4.00
2023-04-15T00:08:37.862Z,4.07
2023-04-15T00:09:39.706Z,4.00
2023-04-15T00:10:44.191Z,3.95
2023-04-15T00:11:46.455Z,3.80
2023-04-15T00:12:48.320Z,3.90
2023-04-15T00:13:50.261Z,4.60
2023-04-15T00:14:52.247Z,3.92
2023-04-15T00:15:54.118Z,3.80
2023-04-15T00:16:57.399Z,4.47
2023-04-15T00:17:59.337Z,4.18
2023-04-15T00:19:01.525Z,3.90
2023-04-15T00:20:06.370Z,3.80
2023-04-15T00:21:09.019Z,4.25
2023-04-15T00:22:11.435Z,4.12
2023-04-15T00:23:13.676Z,4.32
2023-04-15T00:24:15.681Z,4.10
2023-04-15T00:25:18.049Z,4.80
2023-04-15T00:26:20.774Z,4.62
2023-04-15T00:27:23.890Z,4.30
2023-04-15T00:28:26.304Z,4.00
2023-04-15T00:29:28.484Z,3.92
2023-04-15T00:30:30.434Z,4.22
2023-04-15T00:31:32.953Z,3.72
2023-04-15T00:32:35.586Z,4.50
2023-04-15T00:33:37.523Z,3.90
2023-04-15T00:34:39.513Z,4.22
2023-04-15T00:35:43.067Z,4.50
2023-04-15T00:36:44.988Z,4.12
2023-04-15T00:37:47.195Z,4.35
2023-04-15T00:38:49.341Z,3.87
2023-04-15T00:39:51.747Z,3.72
2023-04-15T00:40:53.914Z,3.62
2023-04-15T00:41:55.985Z,4.30
2023-04-15T00:42:58.171Z,3.90
2023-04-15T00:44:02.343Z,4.07
2023-04-15T00:45:05.497Z,3.95
2023-04-15T00:46:07.929Z,3.97
2023-04-15T00:47:10.506Z,3.83
2023-04-15T00:48:13.127Z,3.62
2023-04-15T00:49:16.075Z,4.03
2023-04-15T00:50:17.939Z,3.62
2023-04-15T00:51:20.170Z,3.85
2023-04-15T00:52:22.661Z,4.10
2023-04-15T00:53:26.060Z,5.37
2023-04-15T00:54:27.924Z,7.07
2023-04-15T00:55:30.067Z,14.40
2023-04-15T00:56:36.044Z,10.18
2023-04-15T00:57:39.299Z,7.32
2023-04-15T00:58:42.171Z,4.70
2023-04-15T00:59:44.113Z,8.35
2023-04-15T01:00:46.770Z,6.12
2023-04-15T01:01:48.893Z,3.40
2023-04-15T01:02:50.979Z,4.18
2023-04-15T01:03:54.010Z,4.65
2023-04-15T01:04:56.767Z,5.65
2023-04-15T01:06:00.848Z,8.45
2023-04-15T01:07:04.339Z,5.55
2023-04-15T01:08:06.616Z,4.90
2023-04-15T01:09:08.776Z,4.00
2023-04-15T01:10:10.847Z,3.65
2023-04-15T01:11:13.853Z,3.85
2023-04-15T01:12:17.384Z,3.40
2023-04-15T01:13:19.950Z,3.42
2023-04-15T01:14:22.158Z,3.62
2023-04-15T01:15:25.006Z,3.62
2023-04-15T01:16:28.773Z,3.72
2023-04-15T01:17:30.851Z,3.65
2023-04-15T01:18:33.924Z,3.50
2023-04-15T01:19:39.872Z,3.72
2023-04-15T01:20:41.857Z,4.18
2023-04-15T01:21:43.842Z,4.18
2023-04-15T01:22:45.771Z,3.87
2023-04-15T01:23:48.957Z,4.00
2023-04-15T01:24:59.957Z,3.87
2023-04-15T01:26:02.601Z,3.80
2023-04-15T01:27:05.602Z,4.03
2023-04-15T01:28:09.540Z,3.95
2023-04-15T01:29:11.931Z,4.22
2023-04-15T01:30:14.140Z,4.62
2023-04-15T01:31:16.539Z,4.28
2023-04-15T01:32:18.756Z,4.55
2023-04-15T01:33:20.584Z,4.82
2023-04-15T01:34:22.747Z,4.65
2023-04-15T01:35:28.631Z,4.60
2023-04-15T01:36:30.706Z,4.50
2023-04-15T01:37:33.150Z,4.93
2023-04-15T01:38:35.068Z,4.40
2023-04-15T01:39:36.918Z,4.55
2023-04-15T01:40:39.493Z,5.32
2023-04-15T01:41:42.404Z,4.97
2023-04-15T01:42:44.605Z,5.10
2023-04-15T01:43:46.741Z,4.97
2023-04-15T01:44:48.633Z,4.82
2023-04-15T01:45:51.227Z,5.62
2023-04-15T01:46:53.321Z,5.05
2023-04-15T01:47:55.500Z,5.07
2023-04-15T01:48:57.651Z,4.57
2023-04-15T01:50:00.215Z,5.37
2023-04-15T01:51:03.973Z,4.75
2023-04-15T01:52:06.000Z,4.95
2023-04-15T01:53:08.684Z,4.75
2023-04-15T01:54:10.547Z,5.00
2023-04-15T01:55:13.311Z,4.97
2023-04-15T01:56:16.971Z,4.87
2023-04-15T01:57:18.982Z,4.70
2023-04-15T01:58:22.026Z,4.97
2023-04-15T01:59:24.357Z,4.72
2023-04-15T02:00:26.680Z,4.85
2023-04-15T02:01:28.876Z,4.82
2023-04-15T02:02:34.644Z,4.75
2023-04-15T02:03:38.881Z,4.47
2023-04-15T02:04:40.840Z,3.92
2023-04-15T02:05:42.771Z,4.75
2023-04-15T02:06:46.369Z,4.72
2023-04-15T02:07:49.535Z,4.43
2023-04-15T02:08:51.454Z,4.43
2023-04-15T02:09:53.355Z,4.25
2023-04-15T02:10:55.342Z,4.32
2023-04-15T02:11:57.741Z,4.50
2023-04-15T02:12:59.609Z,3.95
2023-04-15T02:14:07.097Z,3.83
2023-04-15T02:15:10.384Z,4.10
2023-04-15T02:16:19.616Z,3.70
2023-04-15T02:17:21.698Z,4.07
2023-04-15T02:18:23.683Z,3.83
2023-04-15T02:19:26.108Z,3.58
2023-04-15T02:20:28.307Z,3.85
2023-04-15T02:21:33.153Z,3.90
2023-04-15T02:22:35.257Z,3.83
2023-04-15T02:23:37.166Z,3.92
2023-04-15T02:24:39.422Z,3.55
2023-04-15T02:25:41.524Z,3.87
2023-04-15T02:26:43.526Z,4.10
2023-04-15T02:27:45.721Z,3.92
2023-04-15T02:28:47.624Z,3.67
2023-04-15T02:29:52.831Z,3.50
2023-04-15T02:30:57.614Z,3.80
2023-04-15T02:31:59.524Z,3.92
2023-04-15T02:33:02.606Z,4.12
2023-04-15T02:34:04.744Z,3.55
2023-04-15T02:35:09.008Z,3.92
2023-04-15T02:36:12.519Z,3.70
2023-04-15T02:37:14.513Z,3.47
2023-04-15T02:38:17.964Z,3.50
2023-04-15T02:39:20.143Z,4.57
2023-04-15T02:40:22.822Z,4.50
2023-04-15T02:41:27.777Z,5.03
2023-04-15T02:42:30.452Z,4.57
2023-04-15T02:43:33.648Z,5.50
2023-04-15T02:44:36.559Z,4.97
2023-04-15T02:45:39.079Z,5.65
2023-04-15T02:46:41.349Z,5.12
2023-04-15T02:47:44.020Z,4.57
2023-04-15T02:48:46.002Z,6.07
2023-04-15T02:49:47.873Z,6.87
2023-04-15T02:50:50.085Z,4.78
2023-04-15T02:51:52.254Z,6.03
2023-04-15T02:52:54.348Z,4.80
2023-04-15T02:53:56.665Z,9.05
2023-04-15T02:55:00.796Z,5.82
2023-04-15T02:56:03.538Z,8.48
2023-04-15T02:57:06.871Z,7.57
2023-04-15T02:58:09.039Z,9.18
2023-04-15T02:59:12.388Z,5.62
2023-04-15T03:00:14.460Z,4.40
2023-04-15T03:01:16.932Z,20.17
2023-04-15T03:02:19.017Z,18.42
2023-04-15T03:03:21.126Z,12.77
2023-04-15T03:04:23.180Z,5.35
2023-04-15T03:05:25.495Z,4.30
2023-04-15T03:06:27.717Z,4.10
2023-04-15T03:07:29.868Z,4.32
2023-04-15T03:08:31.957Z,5.55
2023-04-15T03:09:33.807Z,6.43
2023-04-15T03:10:36.259Z,6.57
2023-04-15T03:11:40.774Z,7.53
2023-04-15T03:12:42.982Z,6.53
2023-04-15T03:13:45.123Z,5.85
2023-04-15T03:14:48.756Z,5.32
2023-04-15T03:15:50.861Z,5.50
2023-04-15T03:16:53.166Z,5.05
2023-04-15T03:17:55.146Z,5.28
2023-04-15T03:18:57.052Z,5.25
2023-04-15T03:19:59.393Z,6.72
2023-04-15T03:21:02.874Z,7.55
2023-04-15T03:22:05.644Z,7.60
2023-04-15T03:23:07.559Z,5.78
2023-04-15T03:24:09.554Z,5.80
2023-04-15T03:25:11.563Z,7.37
2023-04-15T03:26:30.104Z,6.68
2023-04-15T03:27:32.702Z,9.00
2023-04-15T03:28:35.024Z,8.50
2023-04-15T03:29:37.294Z,6.00
2023-04-15T03:30:39.267Z,5.97
2023-04-15T03:31:41.967Z,6.65
2023-04-15T03:32:44.143Z,5.60
2023-04-15T03:33:46.157Z,6.43
2023-04-15T03:34:48.354Z,6.25
2023-04-15T03:35:52.088Z,6.47
2023-04-15T03:36:54.048Z,6.35
2023-04-15T03:37:56.254Z,5.95
2023-04-15T03:38:58.645Z,6.07
2023-04-15T03:40:00.675Z,6.05
2023-04-15T03:41:02.543Z,6.07
2023-04-15T03:42:04.412Z,7.28
2023-04-15T03:43:06.704Z,7.70
2023-04-15T03:44:08.555Z,7.03
2023-04-15T03:45:10.917Z,6.53
2023-04-15T03:46:12.849Z,5.47
2023-04-15T03:47:14.756Z,6.37
2023-04-15T03:48:18.260Z,5.93
2023-04-15T03:49:22.981Z,5.62
2023-04-15T03:50:25.046Z,5.28
2023-04-15T03:51:26.935Z,5.32
2023-04-15T03:52:28.838Z,6.00
2023-04-15T03:53:31.017Z,7.10
2023-04-15T03:54:32.848Z,7.65
2023-04-15T03:55:34.677Z,7.93
2023-04-15T03:56:36.546Z,6.30
2023-04-15T03:57:39.392Z,7.07
2023-04-15T03:58:41.713Z,6.22
2023-04-15T03:59:43.905Z,6.47
2023-04-15T04:00:45.978Z,5.12
2023-04-15T04:01:48.378Z,7.18
2023-04-15T04:02:50.485Z,6.50
2023-04-15T04:03:52.750Z,6.22
2023-04-15T04:04:54.820Z,6.68
2023-04-15T04:05:56.744Z,6.05
2023-04-15T04:06:58.876Z,6.40
2023-04-15T04:08:00.699Z,6.15
2023-04-15T04:09:02.742Z,5.75
2023-04-15T04:10:05.186Z,6.57
2023-04-15T04:11:06.993Z,7.28
2023-04-15T04:12:09.200Z,6.55
2023-04-15T04:13:11.183Z,7.10
2023-04-15T04:14:13.112Z,7.22
2023-04-15T04:15:15.002Z,8.23
2023-04-15T04:16:17.313Z,9.30
2023-04-15T04:17:19.745Z,7.87
2023-04-15T04:18:22.468Z,7.65
2023-04-15T04:19:24.343Z,7.82
2023-04-15T04:20:26.253Z,8.27
2023-04-15T04:21:28.204Z,6.65
2023-04-15T04:22:30.648Z,7.55
2023-04-15T04:23:33.173Z,6.82
2023-04-15T04:24:35.028Z,9.10
2023-04-15T04:25:36.971Z,8.43
2023-04-15T04:26:38.822Z,7.65
2023-04-15T04:27:41.143Z,6.60
2023-04-15T04:28:43.007Z,5.93
2023-04-15T04:29:47.558Z,6.28
2023-04-15T04:30:49.534Z,6.68
2023-04-15T04:31:51.698Z,6.43
2023-04-15T04:32:53.993Z,24.55
2023-04-15T04:33:55.870Z,12.30
2023-04-15T04:34:57.723Z,8.80
2023-04-15T04:35:59.564Z,6.28
2023-04-15T04:37:01.488Z,8.13
2023-04-15T04:38:04.465Z,6.00
2023-04-15T04:39:06.335Z,6.70
2023-04-15T04:40:09.503Z,10.70
2023-04-15T04:41:11.405Z,11.70
2023-04-15T04:42:13.266Z,21.35
2023-04-15T04:43:16.139Z,15.05
2023-04-15T04:44:18.287Z,11.65
2023-04-15T04:45:20.526Z,23.02
2023-04-15T04:46:23.817Z,25.50
2023-04-15T04:47:25.850Z,11.80
2023-04-15T04:48:28.052Z,17.00
2023-04-15T04:49:29.914Z,14.43
2023-04-15T04:50:32.381Z,14.95
2023-04-15T04:51:34.405Z,12.75
2023-04-15T04:52:36.777Z,13.18
2023-04-15T04:53:39.007Z,29.40
2023-04-15T04:54:41.096Z,19.17
2023-04-15T04:55:42.986Z,26.30
2023-04-15T04:56:44.848Z,34.25
2023-04-15T04:57:47.397Z,19.55
2023-04-15T04:58:49.534Z,22.23
2023-04-15T04:59:51.376Z,12.05
2023-04-15T05:00:53.302Z,24.15
2023-04-15T05:01:55.540Z,16.73
2023-04-15T05:02:57.634Z,15.85
2023-04-15T05:04:00.496Z,21.87
2023-04-15T05:05:02.722Z,21.40
2023-04-15T05:06:06.585Z,49.85
2023-04-15T05:07:08.606Z,39.60
2023-04-15T05:08:10.461Z,35.15
2023-04-15T05:09:12.629Z,39.95
2023-04-15T05:10:15.351Z,25.73
2023-04-15T05:11:17.235Z,47.62
2023-04-15T05:12:19.136Z,51.30
2023-04-15T05:13:21.670Z,30.55
2023-04-15T05:14:23.899Z,23.58
2023-04-15T05:15:25.823Z,15.80
2023-04-15T05:16:27.869Z,20.50
2023-04-15T05:17:31.990Z,21.40
2023-04-15T05:18:34.486Z,24.70
2023-04-15T05:19:36.767Z,18.50
2023-04-15T05:20:38.702Z,8.80
2023-04-15T05:21:40.892Z,6.45
2023-04-15T05:22:42.845Z,6.12
2023-04-15T05:23:44.754Z,6.30
2023-04-15T05:24:46.994Z,5.82
2023-04-15T05:25:48.995Z,5.80
2023-04-15T05:26:51.156Z,7.75
2023-04-15T05:27:53.007Z,5.95
2023-04-15T05:28:55.096Z,10.80
2023-04-15T05:29:57.370Z,8.60
2023-04-15T05:30:59.298Z,6.28
2023-04-15T05:32:01.227Z,11.00
2023-04-15T05:33:03.828Z,9.50
2023-04-15T05:34:07.181Z,9.88
2023-04-15T05:35:09.496Z,10.43
2023-04-15T05:36:12.122Z,9.45
2023-04-15T05:37:14.199Z,8.13
2023-04-15T05:38:16.221Z,8.18
2023-04-15T05:39:18.214Z,9.20
2023-04-15T05:40:20.778Z,10.55
2023-04-15T05:41:22.664Z,14.80
2023-04-15T05:42:24.513Z,8.77
2023-04-15T05:43:26.516Z,10.13
2023-04-15T05:44:28.414Z,7.28
2023-04-15T05:45:30.585Z,6.37
2023-04-15T05:46:32.488Z,9.48
2023-04-15T05:47:35.045Z,9.95
2023-04-15T05:48:37.152Z,8.63
2023-04-15T05:49:39.011Z,6.72
2023-04-15T05:50:42.344Z,6.72
2023-04-15T05:51:44.221Z,6.53
2023-04-15T05:52:46.324Z,6.03
2023-04-15T05:53:48.229Z,6.87
2023-04-15T05:54:50.642Z,9.68
2023-04-15T05:55:52.873Z,8.32
2023-04-15T05:56:54.908Z,8.15
2023-04-15T05:57:57.230Z,8.55
2023-04-15T05:58:59.237Z,9.70
2023-04-15T06:00:01.569Z,9.98
2023-04-15T06:01:11.757Z,7.00
2023-04-15T06:02:14.261Z,6.85
2023-04-15T06:03:16.405Z,6.85
2023-04-15T06:04:18.369Z,7.75
2023-04-15T06:05:20.291Z,8.05
2023-04-15T06:06:22.360Z,7.97
2023-04-15T06:07:24.838Z,7.20
2023-04-15T06:08:27.852Z,7.80
2023-04-15T06:09:29.705Z,6.70
2023-04-15T06:10:36.375Z,10.25
2023-04-15T06:11:38.335Z,10.85
2023-04-15T06:12:40.520Z,12.98
2023-04-15T06:13:42.550Z,6.47
2023-04-15T06:14:44.498Z,6.80
2023-04-15T06:15:46.425Z,6.20
2023-04-15T06:16:48.259Z,6.35
2023-04-15T06:17:50.513Z,5.78
2023-04-15T06:18:52.408Z,6.62
2023-04-15T06:19:55.858Z,6.90
2023-04-15T06:20:57.961Z,6.32
2023-04-15T06:21:59.918Z,7.12
2023-04-15T06:23:02.062Z,7.43
2023-04-15T06:24:04.108Z,7.05
2023-04-15T06:25:08.299Z,6.40
2023-04-15T06:26:10.257Z,6.43
2023-04-15T06:27:12.156Z,5.80
2023-04-15T06:28:14.364Z,5.95
2023-04-15T06:29:16.316Z,5.90
2023-04-15T06:30:18.207Z,5.90
2023-04-15T06:31:20.186Z,5.47
2023-04-15T06:32:22.090Z,5.43
2023-04-15T06:33:24.331Z,5.90
2023-04-15T06:34:26.335Z,5.57
2023-04-15T06:35:28.642Z,6.78
2023-04-15T06:36:30.543Z,6.35
2023-04-15T06:37:32.713Z,6.50
2023-04-15T06:38:34.847Z,5.53
2023-04-15T06:39:37.244Z,6.05
2023-04-15T06:40:39.167Z,5.18
2023-04-15T06:41:41.152Z,5.37
2023-04-15T06:42:43.047Z,4.95
2023-04-15T06:43:45.256Z,5.87
2023-04-15T06:44:47.104Z,6.75
2023-04-15T06:45:48.981Z,6.00
2023-04-15T06:46:51.004Z,4.97
2023-04-15T06:47:52.940Z,5.65
2023-04-15T06:48:55.156Z,5.10
2023-04-15T06:49:57.028Z,5.05
2023-04-15T06:50:58.886Z,5.25
2023-04-15T06:52:01.619Z,4.95
2023-04-15T06:53:03.657Z,5.03
2023-04-15T06:54:06.349Z,5.20
2023-04-15T06:55:08.767Z,4.80
2023-04-15T06:56:10.963Z,4.87
2023-04-15T06:57:13.033Z,5.47
2023-04-15T06:58:14.914Z,4.95
2023-04-15T06:59:17.215Z,4.72
2023-04-15T07:00:19.652Z,4.78
2023-04-15T07:01:22.559Z,4.93
2023-04-15T07:02:24.703Z,4.70
2023-04-15T07:03:27.117Z,4.93
2023-04-15T07:04:29.417Z,5.22
2023-04-15T07:05:32.510Z,4.53
2023-04-15T07:06:35.566Z,4.72
2023-04-15T07:07:38.400Z,4.53
2023-04-15T07:08:40.470Z,4.80
2023-04-15T07:09:42.849Z,4.32
2023-04-15T07:10:44.844Z,3.92
2023-04-15T07:11:46.741Z,4.80
2023-04-15T07:12:49.210Z,4.10
2023-04-15T07:13:51.122Z,6.70
2023-04-15T07:14:53.339Z,9.48
2023-04-15T07:15:55.317Z,4.60
2023-04-15T07:16:57.734Z,4.32
2023-04-15T07:17:59.701Z,5.93
2023-04-15T07:19:01.754Z,4.45
2023-04-15T07:20:05.026Z,4.03
2023-04-15T07:21:06.955Z,3.92
2023-04-15T07:22:09.165Z,4.97
2023-04-15T07:23:11.108Z,4.72
2023-04-15T07:24:13.113Z,5.80
2023-04-15T07:25:15.379Z,3.97
2023-04-15T07:26:17.267Z,3.42
2023-04-15T07:27:19.128Z,14.95
2023-04-15T07:28:21.273Z,4.20
2023-04-15T07:29:23.195Z,3.60
2023-04-15T07:30:25.436Z,3.03
2023-04-15T07:31:27.508Z,3.42
2023-04-15T07:32:29.529Z,3.03
2023-04-15T07:33:31.548Z,2.90
2023-04-15T07:34:33.525Z,3.80
2023-04-15T07:35:35.839Z,3.67
2023-04-15T07:36:37.807Z,3.00
2023-04-15T07:37:39.792Z,2.87
2023-04-15T07:38:42.585Z,3.28
2023-04-15T07:39:44.470Z,3.22
2023-04-15T07:40:47.032Z,3.33
2023-04-15T07:41:49.330Z,3.08
2023-04-15T07:42:51.472Z,2.67
2023-04-15T07:43:53.395Z,3.50
2023-04-15T07:44:55.397Z,2.47
2023-04-15T07:45:57.707Z,2.12
2023-04-15T07:46:59.654Z,3.40
2023-04-15T07:48:02.554Z,2.35
2023-04-15T07:49:04.626Z,2.37
2023-04-15T07:50:06.935Z,2.78
2023-04-15T07:51:10.840Z,2.78
2023-04-15T07:52:12.689Z,3.08
2023-04-15T07:53:14.695Z,2.85
2023-04-15T07:54:16.863Z,3.00
2023-04-15T07:55:21.511Z,2.97
2023-04-15T07:56:23.754Z,2.37
2023-04-15T07:57:25.605Z,2.50
2023-04-15T07:58:27.503Z,2.22
2023-04-15T07:59:31.180Z,2.20
2023-04-15T08:00:33.334Z,2.53
2023-04-15T08:01:35.803Z,2.90
2023-04-15T08:02:39.048Z,3.00
2023-04-15T08:03:43.209Z,3.72
2023-04-15T08:04:45.364Z,3.47
2023-04-15T08:05:47.507Z,4.00
2023-04-15T08:06:50.438Z,7.25
2023-04-15T08:07:52.345Z,5.85
2023-04-15T08:08:57.320Z,4.62
2023-04-15T08:09:59.236Z,3.78
2023-04-15T08:11:01.232Z,3.47
2023-04-15T08:12:03.854Z,2.95
2023-04-15T08:13:06.053Z,2.85
2023-04-15T08:14:08.135Z,2.10
2023-04-15T08:15:10.399Z,2.10
2023-04-15T08:16:16.870Z,2.40
2023-04-15T08:17:19.107Z,2.42
2023-04-15T08:18:21.298Z,3.33
2023-04-15T08:19:24.290Z,2.30
2023-04-15T08:20:26.248Z,2.15
2023-04-15T08:21:30.829Z,2.20
2023-04-15T08:22:33.129Z,2.37
2023-04-15T08:23:34.961Z,1.58
2023-04-15T08:24:37.666Z,1.77
2023-04-15T08:25:41.380Z,1.60
2023-04-15T08:26:43.293Z,2.15
2023-04-15T08:27:46.206Z,1.80
2023-04-15T08:28:48.729Z,1.58
2023-04-15T08:29:50.683Z,1.52
2023-04-15T08:30:55.533Z,3.72
2023-04-15T08:31:57.847Z,1.98
2023-04-15T08:33:00.898Z,1.60
2023-04-15T08:34:03.600Z,6.60
2023-04-15T08:35:06.464Z,11.27
2023-04-15T08:36:09.131Z,7.90
2023-04-15T08:37:12.208Z,2.20
2023-04-15T08:38:15.156Z,2.80
2023-04-15T08:39:17.778Z,10.20
2023-04-15T08:40:21.153Z,2.70
2023-04-15T08:41:25.413Z,16.15
2023-04-15T08:42:49.003Z,2.83
2023-04-15T08:43:56.835Z,2.08
2023-04-15T08:45:01.757Z,6.78
2023-04-15T08:46:05.629Z,5.47
2023-04-15T08:47:09.078Z,4.95
2023-04-15T08:48:16.598Z,3.45
2023-04-15T08:49:20.823Z,2.87
2023-04-15T08:50:23.746Z,1.30
2023-04-15T08:51:26.579Z,1.20
2023-04-15T08:52:30.577Z,2.92
2023-04-15T08:53:32.693Z,3.53
2023-04-15T08:54:36.363Z,1.87
2023-04-15T08:55:47.373Z,1.70
2023-04-15T08:56:50.338Z,10.43
2023-04-15T08:57:52.257Z,2.75
2023-04-15T08:58:54.537Z,1.20
2023-04-15T08:59:57.703Z,1.30
2023-04-15T09:00:59.872Z,1.17
2023-04-15T09:02:02.827Z,1.40
2023-04-15T09:03:09.065Z,17.37
2023-04-15T09:04:12.585Z,2.37
2023-04-15T09:05:14.977Z,2.60
2023-04-15T09:06:17.930Z,3.58
2023-04-15T09:07:19.915Z,2.08
2023-04-15T09:08:22.235Z,2.10
2023-04-15T09:09:24.146Z,1.77
2023-04-15T09:10:26.502Z,1.92
2023-04-15T09:11:31.425Z,1.77
2023-04-15T09:12:36.214Z,1.77
2023-04-15T09:13:38.287Z,1.48
2023-04-15T09:14:42.583Z,1.40
2023-04-15T09:15:44.795Z,1.10
2023-04-15T09:16:59.144Z,1.20
2023-04-15T09:18:01.311Z,1.40
2023-04-15T09:19:21.712Z,1.02
2023-04-15T09:20:24.112Z,1.35
2023-04-15T09:21:26.476Z,1.30
2023-04-15T09:22:32.668Z,1.40
2023-04-15T09:23:36.282Z,1.73
2023-04-15T09:24:41.014Z,1.40
2023-04-15T09:25:43.190Z,1.65
2023-04-15T09:26:45.518Z,1.90
2023-04-15T09:27:51.789Z,2.00
2023-04-15T09:28:53.651Z,1.92
2023-04-15T09:29:55.667Z,1.40
2023-04-15T09:30:58.880Z,1.37
2023-04-15T09:32:14.093Z,1.50
2023-04-15T09:33:15.953Z,1.40
2023-04-15T09:34:18.002Z,1.30
2023-04-15T09:35:24.444Z,1.50
2023-04-15T09:36:29.737Z,1.23
2023-04-15T09:37:36.587Z,2.05
2023-04-15T09:38:56.231Z,2.30
2023-04-15T09:39:58.086Z,1.62
2023-04-15T09:41:00.298Z,1.40
2023-04-15T09:42:07.153Z,1.40
2023-04-15T09:43:13.025Z,1.35
2023-04-15T09:44:27.230Z,1.10
2023-04-15T09:45:29.967Z,1.23
2023-04-15T09:46:45.402Z,1.35
2023-04-15T09:47:47.315Z,1.02
2023-04-15T09:49:08.849Z,1.30
2023-04-15T09:50:10.877Z,1.25
2023-04-15T09:51:12.864Z,1.10
2023-04-15T09:52:14.811Z,1.30
2023-04-15T09:53:19.346Z,1.10
2023-04-15T09:54:21.579Z,1.05
2023-04-15T09:55:23.603Z,1.00
2023-04-15T09:56:34.796Z,1.08
2023-04-15T09:57:37.976Z,0.70
2023-04-15T09:58:41.706Z,0.60
2023-04-15T09:59:44.014Z,0.77
2023-04-15T10:00:48.706Z,1.00
2023-04-15T10:01:51.219Z,1.00
2023-04-15T10:02:53.400Z,0.95
2023-04-15T10:03:57.408Z,0.95
2023-04-15T10:05:00.494Z,1.02
2023-04-15T10:06:03.706Z,1.50
2023-04-15T10:07:06.450Z,1.33
2023-04-15T10:08:09.278Z,1.40
2023-04-15T10:09:11.624Z,1.30
2023-04-15T10:10:14.825Z,1.02
2023-04-15T10:11:20.013Z,1.40
2023-04-15T10:12:23.228Z,1.10
2023-04-15T10:13:27.189Z,1.02
2023-04-15T10:14:34.220Z,1.27
2023-04-15T10:15:36.661Z,1.58
2023-04-15T10:16:43.085Z,3.05
2023-04-15T10:17:45.829Z,1.00
2023-04-15T10:18:51.569Z,1.00
2023-04-15T10:19:55.081Z,1.02
2023-04-15T10:20:57.220Z,1.40
2023-04-15T10:21:59.965Z,1.15
2023-04-15T10:23:02.496Z,1.23
2023-04-15T10:24:06.218Z,1.00
2023-04-15T10:25:09.734Z,1.10
2023-04-15T10:26:14.805Z,1.00
2023-04-15T10:27:18.779Z,0.95
2023-04-15T10:28:24.948Z,1.10
2023-04-15T10:29:27.345Z,0.90
2023-04-15T10:30:29.307Z,0.73
2023-04-15T10:31:31.874Z,0.75
2023-04-15T10:32:34.447Z,0.93
2023-04-15T10:33:38.850Z,1.33
2023-04-15T10:34:41.524Z,1.27
2023-04-15T10:35:44.284Z,1.30
2023-04-15T10:36:47.337Z,1.27
2023-04-15T10:37:49.333Z,1.20
2023-04-15T10:38:51.593Z,0.82
2023-04-15T10:39:53.513Z,1.25
2023-04-15T10:41:31.390Z,1.23
2023-04-15T10:42:36.479Z,1.33
2023-04-15T10:43:38.366Z,1.50
2023-04-15T10:44:44.461Z,1.48
2023-04-15T10:45:48.792Z,1.73
2023-04-15T10:46:52.548Z,1.12
2023-04-15T10:47:59.615Z,1.00
2023-04-15T10:49:17.386Z,1.33
2023-04-15T10:50:19.732Z,0.90
2023-04-15T10:51:32.133Z,1.00
2023-04-15T10:52:34.029Z,1.20
2023-04-15T10:53:37.962Z,1.35
2023-04-15T10:54:39.903Z,1.33
2023-04-15T10:55:42.139Z,1.70
2023-04-15T10:56:45.760Z,2.03
2023-04-15T10:57:52.235Z,1.87
2023-04-15T10:58:54.137Z,2.08
2023-04-15T11:00:00.388Z,2.65
2023-04-15T11:01:03.516Z,2.20
2023-04-15T11:02:07.425Z,1.85
2023-04-15T11:03:10.001Z,2.20
2023-04-15T11:04:12.452Z,2.03
2023-04-15T11:05:16.372Z,2.25
2023-04-15T11:06:18.559Z,2.12
2023-04-15T11:07:52.967Z,1.55
2023-04-15T11:09:02.563Z,1.70
2023-04-15T11:10:30.115Z,1.62
2023-04-15T11:12:09.923Z,1.90
2023-04-15T11:13:11.812Z,2.10
2023-04-15T11:14:16.834Z,2.20
2023-04-15T11:15:27.844Z,2.33
2023-04-15T11:16:29.781Z,2.77
2023-04-15T11:17:32.054Z,3.35
2023-04-15T11:18:34.719Z,3.30
2023-04-15T11:19:40.313Z,3.22
2023-04-15T11:20:48.122Z,2.53
2023-04-15T11:21:50.029Z,2.83
2023-04-15T11:23:08.175Z,2.42
2023-04-15T11:24:28.008Z,1.90
2023-04-15T11:25:34.839Z,1.77
2023-04-15T11:26:37.551Z,1.80
2023-04-15T11:27:39.490Z,1.87
2023-04-15T11:28:45.137Z,1.87
2023-04-15T11:29:47.112Z,1.70
2023-04-15T11:30:49.524Z,1.90
2023-04-15T11:31:51.609Z,1.55
2023-04-15T11:32:55.942Z,1.58
2023-04-15T11:34:01.667Z,1.80
2023-04-15T11:35:03.676Z,3.25
2023-04-15T11:36:05.803Z,2.40
2023-04-15T11:37:08.059Z,2.37
2023-04-15T11:38:14.448Z,1.80
2023-04-15T11:39:16.781Z,2.10
2023-04-15T11:40:29.671Z,1.90
2023-04-15T11:41:31.672Z,2.65
2023-04-15T11:42:46.515Z,2.30
2023-04-15T11:43:51.977Z,1.98
2023-04-15T11:45:11.786Z,2.50
2023-04-15T11:46:13.733Z,2.70
2023-04-15T11:47:25.205Z,2.78
2023-04-15T11:48:29.745Z,3.03
2023-04-15T11:49:33.950Z,2.87
2023-04-15T11:50:37.473Z,2.80
2023-04-15T11:51:39.371Z,2.72
2023-04-15T11:52:41.502Z,2.50
2023-04-15T11:53:44.324Z,2.47
2023-04-15T11:54:46.221Z,2.25
2023-04-15T11:55:51.005Z,2.30
2023-04-15T11:56:54.615Z,2.20
2023-04-15T11:58:18.825Z,2.45
2023-04-15T11:59:20.745Z,1.42
2023-04-15T12:00:23.309Z,1.48
2023-04-15T12:01:36.525Z,1.40
2023-04-15T12:02:39.450Z,1.00
2023-04-15T12:03:44.013Z,0.98
2023-04-15T12:04:46.301Z,0.90
2023-04-15T12:06:13.377Z,0.95
2023-04-15T12:07:15.495Z,1.20
2023-04-15T12:08:17.351Z,1.02
2023-04-15T12:09:20.385Z,1.08
2023-04-15T12:10:24.892Z,1.20
2023-04-15T12:11:26.667Z,1.17
2023-04-15T12:12:29.100Z,1.00
2023-04-15T12:13:30.944Z,0.95
2023-04-15T12:14:33.785Z,1.10
2023-04-15T12:15:39.318Z,1.25
2023-04-15T12:16:49.559Z,1.25
2023-04-15T12:17:55.092Z,0.88
2023-04-15T12:19:01.603Z,1.20
2023-04-15T12:20:04.418Z,1.15
2023-04-15T12:21:12.409Z,1.52
2023-04-15T12:22:16.961Z,1.73
2023-04-15T12:23:21.763Z,2.00
2023-04-15T12:24:23.756Z,1.92
2023-04-15T12:25:35.628Z,1.65
2023-04-15T12:27:52.010Z,1.62
2023-04-15T12:29:01.523Z,2.08
2023-04-15T12:30:05.324Z,2.20
2023-04-15T12:31:08.905Z,1.95
2023-04-15T12:32:12.088Z,2.12
2023-04-15T12:33:14.130Z,1.73
2023-04-15T12:34:16.867Z,1.70
2023-04-15T12:35:21.542Z,2.03
2023-04-15T12:36:24.049Z,1.67
2023-04-15T12:37:26.245Z,1.80
2023-04-15T12:38:28.130Z,1.70
2023-04-15T12:39:32.596Z,1.50
2023-04-15T12:40:34.566Z,1.55
2023-04-15T12:41:36.407Z,1.52
2023-04-15T12:42:38.300Z,2.12
2023-04-15T12:43:40.170Z,1.87
2023-04-15T12:44:42.423Z,1.52
2023-04-15T12:45:44.291Z,1.80
2023-04-15T12:46:46.887Z,1.75
2023-04-15T12:47:48.843Z,1.60
2023-04-15T12:48:51.374Z,1.20
2023-04-15T12:49:53.752Z,1.35
2023-04-15T12:50:55.644Z,1.48
2023-04-15T12:52:00.199Z,1.30
2023-04-15T12:53:03.633Z,1.40
2023-04-15T12:54:05.796Z,1.30
2023-04-15T12:55:08.520Z,1.20
2023-04-15T12:56:10.700Z,1.02
2023-04-15T12:57:12.559Z,1.40
2023-04-15T12:58:14.447Z,1.87
2023-04-15T12:59:18.521Z,1.10
2023-04-15T13:00:21.004Z,1.02
2023-04-15T13:01:23.180Z,1.00
2023-04-15T13:02:27.143Z,0.90
2023-04-15T13:03:29.194Z,1.10
2023-04-15T13:04:31.692Z,0.77
2023-04-15T13:05:34.100Z,1.37
2023-04-15T13:06:36.869Z,1.50
2023-04-15T13:07:39.069Z,1.62
2023-04-15T13:08:48.005Z,1.37
2023-04-15T13:09:57.209Z,1.20
2023-04-15T13:10:59.359Z,1.42
2023-04-15T13:12:01.373Z,1.20
2023-04-15T13:13:03.663Z,1.30
2023-04-15T13:14:08.605Z,1.00
2023-04-15T13:15:11.602Z,1.20
2023-04-15T13:16:13.854Z,1.10
2023-04-15T13:17:17.523Z,1.10
2023-04-15T13:18:19.527Z,1.30
2023-04-15T13:19:21.390Z,1.12
2023-04-15T13:20:23.406Z,1.20
2023-04-15T13:21:25.693Z,1.00
2023-04-15T13:22:27.562Z,0.90
2023-04-15T13:23:29.436Z,1.00
2023-04-15T13:24:31.890Z,1.00
2023-04-15T13:25:33.726Z,1.10
2023-04-15T13:26:36.286Z,0.80
2023-04-15T13:27:39.014Z,1.00
2023-04-15T13:28:40.938Z,0.98
2023-04-15T13:29:42.952Z,1.10
2023-04-15T13:30:45.807Z,1.12
2023-04-15T13:31:47.992Z,1.27
2023-04-15T13:32:51.271Z,1.20
2023-04-15T13:33:53.306Z,0.98
2023-04-15T13:34:56.267Z,1.00
2023-04-15T13:35:58.277Z,1.30
2023-04-15T13:37:06.936Z,1.20
2023-04-15T13:38:08.803Z,1.40
2023-04-15T13:39:10.696Z,1.27
2023-04-15T13:40:12.583Z,1.10
2023-04-15T13:41:14.446Z,0.88
2023-04-15T13:42:16.774Z,1.23
2023-04-15T13:43:18.749Z,1.20
2023-04-15T13:44:22.205Z,0.90
2023-04-15T13:45:24.508Z,1.00
2023-04-15T13:46:26.555Z,1.00
2023-04-15T13:47:29.015Z,1.00
2023-04-15T13:48:31.124Z,1.10
2023-04-15T13:49:33.105Z,1.00
2023-04-15T13:50:35.330Z,1.15
2023-04-15T13:51:37.354Z,1.10
2023-04-15T13:52:40.335Z,1.00
2023-04-15T13:53:42.337Z,0.82
2023-04-15T13:54:44.316Z,1.00
2023-04-15T13:55:46.463Z,1.00
2023-04-15T13:56:48.848Z,1.00
2023-04-15T13:57:51.323Z,0.80
2023-04-15T13:58:54.884Z,1.23
2023-04-15T13:59:57.788Z,1.10
2023-04-15T14:00:59.747Z,1.30
2023-04-15T14:02:02.344Z,1.40